Current Weather

Sharurah

Sharurah, Saudi Arabia (OESH)

Report from: Tuesday, March 5, 2024 4:00 AM +03
Current time: Tuesday, March 5, 2024 4:40 AM +03

Nearby weather – Weather history – Daily summaries
Weather forecast

Temperature25.0°C (77.0°F)
Dew point14.0°C (57.2°F)
Winds Calm
Clouds Sky clear
Altimeter29.88 in.Hg (1012 mB)
Relative humidity51 %
Density altitude1,423 ft. (434 m)
Remarks Ceiling and visibility OK
No significant changes expected in the next two hours
Flight conditions Visual Meteorological Conditions
Raw dataOESH 050100Z 00000KT CAVOK 25/14 Q1012 NOSIG
An error has occurred. This application may no longer respond until reloaded. Reload 🗙